• Join FlightAware (Why Join?)
  • Login
  • US Flag 
01:53PM EST


 

Airport Tracker/Info


-or-


 

Live Flight TrackerFlight Track Log ✈ XOJ552 ✈ 06-Feb-2014 ✈ KOPF - KUGN

Flight Track Log - Related Links

Times and Time Zones

All times are in EST time to prevent confusion due to time zone crossing. See the XOJ552 flight status page for this flight to view local times or setup timezone preferences in your user account.

Time Position Orientation Groundspeed Altitude Reporting Facility
EST Latitude Longitude Course Direction KTS MPH feet Rate Location/Type
01:33PM 25.9089 -80.2683 56° Northeast 143 165 700  Level Miami Center
01:34PM 25.9458 -80.2069 56° Northeast 229 264 5,000 2,700 Climbing Miami Center
01:35PM 25.9864 -80.2661 307° West 308 354 7,400 3,180 Climbing Miami Center
01:36PM 26.0239 -80.3550 295° West 315 362 11,500 3,780 Climbing Miami Center
01:37PM 26.0636 -80.4439 296° West 320 368 15,000 3,300 Climbing Miami Center
01:38PM 26.1114 -80.5356 300° West 325 374 18,200 3,000 Climbing Miami Center
01:39PM 26.1975 -80.5961 328° Northwest 332 382 21,000 2,400 Climbing Miami Center
01:40PM 26.2961 -80.6664 327° Northwest 364 419 23,100 2,100 Climbing Miami Center
01:41PM 26.3986 -80.7347 329° Northwest 417 480 25,200 1,920 Climbing Miami Center
01:42PM 26.5011 -80.8075 328° Northwest 425 489 27,000 900 Climbing Miami Center
01:43PM 26.5953 -80.8736 328° Northwest 430 495 27,000  Level Miami Center
01:44PM 26.7142 -80.9567 328° Northwest 446 513 27,000 420 Level Miami Center
01:45PM 26.8206 -81.0300 328° Northwest 452 520 27,900 1,320 Climbing Miami Center
01:46PM 26.9231 -81.1036 327° Northwest 452 520 29,700 1,740 Climbing Miami Center
01:47PM 27.0192 -81.1700 328° Northwest 452 520 31,400 1,860 Climbing Miami Center
01:48PM 27.1356 -81.2536 327° Northwest 452 520 33,500 2,100 Climbing Miami Center
01:49PM 27.2397 -81.3256 328° Northwest 447 514 35,700 2,040 Climbing Miami Center
01:50PM 27.3358 -81.3969 327° Northwest 432 497 37,600 1,620 Climbing Miami Center
01:51PM 27.4336 -81.4661 328° Northwest 423 487 39,000 1,200 Climbing Miami Center
01:52PM 27.5236 -81.5308 327° Northwest 423 487 40,100 960 Climbing Miami Center
01:53PM 27.6194 -81.6003 327° Northwest 423 487 41,000 960 Climbing Miami Center
01:54PM 27.7294 -81.6775 328° Northwest 423 487 42,100 660 Climbing Miami Center
01:56PM 27.9222 -81.8122 328° Northwest 413 475 43,000 300 Climbing Jacksonville Center
01:57PM 28.0228 -81.8864 327° Northwest 413 475 43,000  Level Jacksonville Center
01:58PM 28.1256 -81.9606 328° Northwest 424 488 43,000  Level Jacksonville Center
01:59PM 28.2264 -82.0350 327° Northwest 429 494 43,000 -60 Level Jacksonville Center
02:00PM 28.3186 -82.1003 328° Northwest 429 494 42,900  Descending Jacksonville Center
02:01PM 28.4192 -82.1750 327° Northwest 434 499 43,000  Climbing Jacksonville Center
02:02PM 28.5197 -82.2500 327° Northwest 434 499 43,000  Level Jacksonville Center
02:03PM 28.6225 -82.3203 329° Northwest 434 499 43,000  Level Jacksonville Center
02:04PM 28.7269 -82.4000 326° Northwest 424 488 43,000  Level Jacksonville Center
02:05PM 28.8358 -82.4589 335° Northwest 424 488 43,000  Level Jacksonville Center
02:06PM 28.9508 -82.5033 341° North 424 488 43,000  Level Jacksonville Center
02:07PM 29.0636 -82.5458 342° North 429 494 43,000  Level Jacksonville Center
02:08PM 29.1786 -82.5906 341° North 429 494 43,000  Level Jacksonville Center
02:09PM 29.2914 -82.6353 341° North 429 494 43,000  Level Jacksonville Center
02:10PM 29.4061 -82.6806 341° North 429 494 43,000  Level Jacksonville Center
02:11PM 29.5128 -82.7278 339° North 438 504 43,000  Level Jacksonville Center
02:12PM 29.6275 -82.7731 341° North 444 511 43,000  Level Jacksonville Center
02:13PM 29.7444 -82.8183 341° North 444 511 43,000  Level Jacksonville Center
02:14PM 29.8614 -82.8639 341° North 444 511 43,000  Level Jacksonville Center
02:15PM 29.9783 -82.9117 341° North 449 517 43,000  Level Jacksonville Center
02:16PM 30.0994 -82.9575 342° North 449 517 43,000  Level Jacksonville Center
02:17PM 30.2183 -83.0056 341° North 449 517 43,000  Level Jacksonville Center
02:18PM 30.3353 -83.0514 341° North 449 517 43,000  Level Jacksonville Center
02:19PM 30.4522 -83.0997 340° North 449 517 43,000  Level Jacksonville Center
02:20PM 30.5733 -83.1339 346° North 444 511 43,000  Level Jacksonville Center
02:21PM 30.6964 -83.1703 346° North 439 505 43,000  Level Jacksonville Center
02:22PM 30.8194 -83.2069 346° North 439 505 43,000  Level Jacksonville Center
02:23PM 30.9383 -83.2414 346° North 439 505 43,000  Level Jacksonville Center
02:24PM 31.0594 -83.2806 345° North 439 505 43,000  Level Jacksonville Center
02:25PM 31.1825 -83.3175 346° North 444 511 43,000  Level Jacksonville Center
02:28PM 31.4800 -83.4083 345° North 456 525 43,000  Level Atlanta Center
02:29PM 31.6033 -83.4439 346° North 456 525 43,000  Level Atlanta Center
02:30PM 31.7286 -83.4797 346° North 456 525 43,000  Level Atlanta Center
02:31PM 31.8561 -83.5181 346° North 456 525 43,000  Level Atlanta Center
02:32PM 31.9814 -83.5589 345° North 456 525 43,000  Level Atlanta Center
02:33PM 32.1047 -83.6000 344° North 456 525 43,000  Level Atlanta Center
02:34PM 32.2281 -83.6386 345° North 456 525 43,000  Level Atlanta Center
02:35PM 32.3514 -83.6750 346° North 456 525 43,000  Level Atlanta Center
02:36PM 32.4725 -83.7114 346° North 456 525 43,000  Level Atlanta Center
02:37PM 32.5936 -83.7528 344° North 456 525 43,000  Level Atlanta Center
02:38PM 32.7147 -83.7894 346° North 451 519 43,000  Level Atlanta Center
02:39PM 32.8381 -83.8261 346° North 451 519 43,000  Level Atlanta Center
02:40PM 32.9592 -83.8631 346° North 451 519 43,000  Level Atlanta Center
02:41PM 33.0783 -83.9050 344° North 451 519 43,000  Level Atlanta Center
02:42PM 33.1972 -83.9419 345° North 439 505 43,000  Level Atlanta Center
02:43PM 33.3203 -83.9792 346° North 445 512 43,000  Level Atlanta Center
02:44PM 33.4269 -84.0114 346° North 445 512 43,000  Level Atlanta Center
02:45PM 33.5481 -84.0489 346° North 445 512 43,000  Level Atlanta Center
02:46PM 33.6669 -84.0861 345° North 445 512 43,000  Level Atlanta Center
02:47PM 33.7858 -84.1239 345° North 439 505 43,000  Level Atlanta Center
02:48PM 33.9089 -84.1589 347° North 439 505 43,000  Level Atlanta Center
02:49PM 34.0322 -84.1992 345° North 444 511 43,000  Level Atlanta Center
02:50PM 34.1531 -84.2372 345° North 444 511 43,000  Level Atlanta Center
02:51PM 34.2742 -84.2775 345° North 449 517 43,000  Level Atlanta Center
02:52PM 34.3950 -84.3156 345° North 449 517 43,000  Level Atlanta Center
02:53PM 34.5139 -84.3539 345° North 449 517 43,000  Level Atlanta Center
02:54PM 34.6369 -84.3947 345° North 449 517 43,000  Level Atlanta Center
02:55PM 34.7578 -84.4306 346° North 449 517 43,000  Level Atlanta Center
02:56PM 34.8808 -84.4769 343° North 454 522 43,000  Level Atlanta Center
02:57PM 35.0122 -84.5206 345° North 449 517 43,000  Level Atlanta Center
02:58PM 35.1350 -84.5619 345° North 449 517 43,000  Level Atlanta Center
02:59PM 35.2456 -84.5983 345° North 455 524 43,000  Level Atlanta Center
03:00PM 35.3706 -84.6397 345° North 455 524 43,000  Level Atlanta Center
03:01PM 35.4975 -84.6817 345° North 455 524 43,000  Level Atlanta Center
03:02PM 35.6206 -84.7233 345° North 455 524 43,000  Level Atlanta Center
03:03PM 35.7517 -84.7628 346° North 455 524 43,000  Level Atlanta Center
03:04PM 35.8764 -84.8075 344° North 455 524 43,000  Level Atlanta Center
03:05PM 36.0014 -84.8472 346° North 450 518 43,000  Level Atlanta Center
03:05PM 36.0947 -84.8794 344° North 457 526 43,000  Level Indianapolis Center
03:06PM 36.2178 -84.9211 345° North 459 528 43,000  Level Indianapolis Center
03:08PM 36.3414 -84.9636 345° North 459 528 43,000  Level Indianapolis Center
03:09PM 36.4886 -85.0131 345° North 458 527 43,000  Level Indianapolis Center
03:10PM 36.6122 -85.0567 344° North 460 529 43,000  Level Indianapolis Center
03:11PM 36.7367 -85.0994 345° North 462 532 43,000  Level Indianapolis Center
03:12PM 36.8614 -85.1422 345° North 464 534 43,000  Level Indianapolis Center
03:13PM 36.9869 -85.1847 345° North 466 536 43,000  Level Indianapolis Center
03:14PM 37.1192 -85.2342 343° North 468 539 43,000  Level Indianapolis Center
03:15PM 37.2392 -85.2947 338° Northwest 464 534 43,000  Level Indianapolis Center
03:16PM 37.3786 -85.3664 338° Northwest 462 532 43,000  Level Indianapolis Center
03:17PM 37.4992 -85.4272 338° Northwest 463 533 43,000  Level Indianapolis Center
03:18PM 37.6203 -85.4881 338° Northwest 466 536 43,000  Level Indianapolis Center
03:19PM 37.7403 -85.5472 339° North 467 537 43,000  Level Indianapolis Center
03:20PM 37.8569 -85.6100 337° Northwest 460 529 43,000  Level Indianapolis Center
03:21PM 37.9739 -85.6711 338° Northwest 455 524 43,000  Level Indianapolis Center
03:22PM 38.0900 -85.7319 338° Northwest 452 520 43,000  Level Indianapolis Center
03:23PM 38.2311 -85.8047 338° Northwest 452 520 43,000  Level Indianapolis Center
03:24PM 38.3481 -85.8664 338° Northwest 453 521 43,000  Level Indianapolis Center
03:25PM 38.4647 -85.9278 338° Northwest 452 520 43,000  Level Indianapolis Center
03:26PM 38.5806 -85.9881 338° Northwest 451 519 43,000  Level Indianapolis Center
03:27PM 38.6964 -86.0494 338° Northwest 450 518 43,000  Level Indianapolis Center
03:28PM 38.8119 -86.1111 337° Northwest 449 517 43,000  Level Indianapolis Center
03:29PM 38.9353 -86.1772 337° Northwest 443 510 43,000  Level Indianapolis Center
03:30PM 39.0489 -86.2372 338° Northwest 442 509 43,000  Level Indianapolis Center
03:31PM 39.1614 -86.2978 337° Northwest 440 506 43,000  Level Indianapolis Center
03:32PM 39.2992 -86.3719 337° Northwest 444 511 43,000  Level Indianapolis Center
03:33PM 39.4136 -86.4344 337° Northwest 445 512 43,000  Level Indianapolis Center
03:34PM 39.5289 -86.4989 337° Northwest 448 516 43,000  Level Indianapolis Center
03:35PM 39.6439 -86.5631 337° Northwest 446 513 43,000  Level Indianapolis Center
03:36PM 39.7575 -86.6247 337° Northwest 439 505 43,000  Level Indianapolis Center
03:38PM 39.8708 -86.6864 337° Northwest 438 504 43,000  Level Indianapolis Center
03:39PM 39.9850 -86.7497 337° Northwest 443 510 43,000  Level Indianapolis Center
03:40PM 40.0969 -86.8128 337° Northwest 439 505 43,000  Level Indianapolis Center
03:40PM 40.1953 -86.8386 349° North 452 520 43,000  Level Chicago Center
03:41PM 40.3231 -86.8642 351° North 463 533 43,000  Level Chicago Center
03:42PM 40.4486 -86.8903 351° North 458 527 43,000 -360 Level Chicago Center
03:43PM 40.5731 -86.9128 352° North 450 518 42,300 -1,740 Descending Chicago Center
03:44PM 40.7156 -86.9414 351° North 447 514 39,500 -2,520 Descending Chicago Center
03:45PM 40.8392 -86.9661 351° North 450 518 37,100 -2,400 Descending Chicago Center
03:46PM 40.9678 -86.9936 351° North 462 532 34,600 -2,040 Descending Chicago Center
03:47PM 41.0978 -87.0164 352° North 470 541 33,000 -900 Descending Chicago Center
03:48PM 41.2228 -87.0436 351° North 462 532 32,800 -1,020 Descending Chicago Center
03:50PM 41.3742 -87.0758 351° North 462 532 31,000 -1,800 Descending Chicago Center
03:51PM 41.5006 -87.1003 352° North 462 532 29,200 -1,860 Descending Chicago Center
03:52PM 41.6233 -87.1269 351° North 452 520 27,200 -1,980 Descending Chicago Center
03:53PM 41.7433 -87.1511 351° North 443 510 25,200 -2,460 Descending Chicago Center
03:54PM 41.8586 -87.1758 351° North 428 493 22,200 -2,520 Descending Chicago Center
03:55PM 41.9469 -87.2656 323° Northwest 334 384 20,000 -1,860 Descending Chicago Center
03:56PM 42.0056 -87.3400 317° Northwest 300 345 18,500 -1,920 Descending Chicago Center
03:57PM 42.0681 -87.4194 317° Northwest 308 354 16,100 -2,040 Descending Chicago Center
03:58PM 42.1297 -87.4978 317° Northwest 307 353 14,300 -2,280 Descending Chicago Center
03:59PM 42.1886 -87.5725 317° Northwest 296 341 11,400 -2,760 Descending Chicago Center
04:00PM 42.2419 -87.6386 317° Northwest 270 311 8,700 -2,520 Descending Chicago Center
04:01PM 42.3206 -87.6597 349° North 275 316 6,200 -1,920 Descending Chicago Center
04:02PM 42.3803 -87.6428 12° North 260 299 4,800 -1,260 Descending Chicago Center
04:03PM 42.4447 -87.6589 350° North 236 272 3,600 -780 Descending Chicago Center
04:04PM 42.4875 -87.7033 323° Northwest 218 251 3,300 -540 Descending Chicago Center
04:06PM 42.4667 -87.8000 254° West 134 154 2,000 -660 Descending Chicago TRACON
04:07PM 42.4333 -87.8333 216° Southwest 117 135 1,300 -720 Descending Chicago TRACON